Time;durP1;ratioP1;P1;durP2;ratioP2;P2;SDS_P1;SDS_P2;PMS_P1;PMS_P2;Temp;Humidity;BMP_temperature;BMP_pressure;BME280_temperature;BME280_humidity;BME280_pressure;Samples;Min_cycle;Max_cycle;Signal;HPM_P1;HPM_P2
2023/01/31 00:01:11;;;;;;;14.73;5.22;;;;;;;1.91;100.00;99612.09;5058350;28;20052;-82
2023/01/31 00:03:38;;;;;;;11.35;5.30;;;;;;;2.26;100.00;99666.16;5048056;28;20029;-82
2023/01/31 00:06:34;;;;;;;14.65;4.80;;;;;;;2.29;100.00;99669.41;5049110;28;20021;-82
2023/01/31 00:09:01;;;;;;;13.25;5.60;;;;;;;2.01;100.00;99630.00;5055666;28;20072;-81
2023/01/31 00:11:28;;;;;;;11.95;5.95;;;;;;;1.96;100.00;99611.69;5054019;28;20028;-82
2023/01/31 00:13:54;;;;;;;14.00;5.18;;;;;;;2.17;100.00;99668.63;5051164;28;20021;-82
2023/01/31 00:16:21;;;;;;;18.15;5.78;;;;;;;1.78;100.00;99592.72;5056021;28;20031;-82
2023/01/31 00:18:47;;;;;;;13.50;5.72;;;;;;;2.01;100.00;99624.66;5054448;28;20039;-80
2023/01/31 00:21:24;;;;;;;12.02;5.57;;;;;;;1.65;100.00;99565.38;5059346;28;20016;-82
2023/01/31 00:23:51;;;;;;;12.27;5.88;;;;;;;1.76;100.00;99592.03;5050339;28;20093;-82
2023/01/31 00:26:25;;;;;;;12.90;5.75;;;;;;;2.17;100.00;99652.63;5050113;28;20001;-82
2023/01/31 00:28:55;;;;;;;17.80;6.45;;;;;;;1.53;100.00;99557.44;5065545;28;20028;-82
2023/01/31 00:31:27;;;;;;;12.07;5.32;;;;;;;1.57;100.00;99541.16;5053495;28;20040;-82
2023/01/31 00:33:56;;;;;;;13.65;6.03;;;;;;;1.94;100.00;99619.00;5052804;28;20032;-82
2023/01/31 00:36:25;;;;;;;15.00;5.57;;;;;;;1.85;100.00;99617.09;5073446;28;20017;-82
2023/01/31 00:38:53;;;;;;;18.05;5.45;;;;;;;1.86;100.00;99627.63;5054912;28;20040;-82
2023/01/31 00:41:20;;;;;;;21.33;6.20;;;;;;;1.63;100.00;99591.34;5056066;28;20053;-82
2023/01/31 00:43:49;;;;;;;17.77;5.47;;;;;;;2.01;100.00;99640.66;5050660;28;20033;-82
2023/01/31 00:46:14;;;;;;;11.68;5.63;;;;;;;1.90;100.00;99642.41;5071905;28;20049;-82
2023/01/31 00:48:40;;;;;;;14.27;5.78;;;;;;;1.45;100.00;99557.22;5057692;28;20035;-81
2023/01/31 00:51:05;;;;;;;10.80;4.60;;;;;;;1.95;100.00;99624.19;5064014;28;20025;-80
2023/01/31 00:53:31;;;;;;;13.20;4.88;;;;;;;2.13;100.00;99648.50;5054568;28;20052;-82
2023/01/31 00:56:03;;;;;;;10.73;5.47;;;;;;;2.15;100.00;99664.41;5052673;28;20029;-82
2023/01/31 00:58:29;;;;;;;18.15;5.70;;;;;;;1.64;100.00;99574.38;5042299;28;20021;-81
2023/01/31 01:00:54;;;;;;;11.70;5.50;;;;;;;1.69;100.00;99566.81;5058080;28;20027;-82
2023/01/31 01:03:20;;;;;;;11.32;4.47;;;;;;;1.62;100.00;99561.16;5051429;28;20029;-82
2023/01/31 01:05:45;;;;;;;13.38;5.10;;;;;;;1.69;100.00;99572.16;5045244;28;20026;-81
2023/01/31 01:08:13;;;;;;;10.93;5.20;;;;;;;1.65;100.00;99565.38;5069584;28;20029;-81
2023/01/31 01:10:38;;;;;;;14.35;5.03;;;;;;;2.29;100.00;99661.41;5060496;28;20040;-82
2023/01/31 01:13:06;;;;;;;14.55;4.72;;;;;;;1.89;100.00;99608.69;5047790;28;20413;-83
2023/01/31 01:15:36;;;;;;;15.45;4.65;;;;;;;2.29;100.00;99666.75;5059132;28;20025;-81
2023/01/31 01:18:01;;;;;;;;;;;;;;;2.30;100.00;99680.94;5054917;28;20032;-82
2023/01/31 01:20:26;;;;;;;9.38;4.03;;;;;;;2.07;100.00;99648.16;5065671;28;19912;-82
2023/01/31 01:22:52;;;;;;;15.18;4.45;;;;;;;2.07;100.00;99651.69;5047464;28;20068;-82
2023/01/31 01:25:17;;;;;;;16.05;5.18;;;;;;;1.71;100.00;99583.56;5053934;28;20017;-81
2023/01/31 01:27:43;;;;;;;13.85;4.50;;;;;;;1.65;100.00;99584.03;5058819;28;20034;-81
2023/01/31 01:30:09;;;;;;;13.65;4.68;;;;;;;2.06;100.00;99635.78;5070268;28;20133;-81
2023/01/31 01:32:35;;;;;;;9.85;4.35;;;;;;;1.92;100.00;99637.78;5064906;28;20040;-80
2023/01/31 01:35:02;;;;;;;14.43;4.40;;;;;;;1.57;100.00;99565.16;5055716;28;20402;-80
2023/01/31 01:37:29;;;;;;;10.25;4.60;;;;;;;1.96;100.00;99644.59;5075913;28;20092;-81
2023/01/31 01:39:55;;;;;;;13.88;5.35;;;;;;;1.71;100.00;99605.75;5057006;28;20551;-81
2023/01/31 01:42:22;;;;;;;13.38;4.85;;;;;;;1.53;100.00;99592.09;5059446;28;20025;-80
2023/01/31 01:44:57;;;;;;;10.85;4.28;;;;;;;1.94;100.00;99651.88;5071053;28;20120;-80
2023/01/31 01:47:46;;;;;;;11.85;4.57;;;;;;;1.98;100.00;99671.97;5054778;28;20024;-81
2023/01/31 01:50:21;;;;;;;9.07;4.68;;;;;;;1.90;100.00;99650.41;5057234;28;20036;-80
2023/01/31 01:52:53;;;;;;;15.57;4.28;;;;;;;1.86;100.00;99646.31;5060129;28;20029;-81
2023/01/31 01:55:23;;;;;;;12.93;5.05;;;;;;;1.85;100.00;99639.28;5055786;28;20033;-80
2023/01/31 01:57:55;;;;;;;14.90;4.53;;;;;;;1.53;100.00;99584.09;5051516;28;20036;-80
2023/01/31 02:00:23;;;;;;;13.48;4.63;;;;;;;1.90;100.00;99655.75;5055824;28;20066;-81
2023/01/31 02:02:54;;;;;;;12.82;4.65;;;;;;;2.18;100.00;99685.50;5065995;28;20025;-81
2023/01/31 02:05:25;;;;;;;9.68;4.60;;;;;;;2.21;100.00;99695.91;5068288;28;20961;-80
2023/01/31 02:07:50;;;;;;;14.98;4.88;;;;;;;2.05;100.00;99669.66;5055253;28;20025;-80
2023/01/31 02:10:29;;;;;;;13.50;4.75;;;;;;;2.04;100.00;99677.78;5053830;28;20025;-81
2023/01/31 02:12:54;;;;;;;11.67;4.60;;;;;;;1.83;100.00;99630.53;5040205;28;20061;-81
2023/01/31 02:15:21;;;;;;;14.98;4.93;;;;;;;2.16;100.00;99688.28;5057282;28;20013;-81
2023/01/31 02:17:47;;;;;;;11.35;4.90;;;;;;;1.91;100.00;99656.59;5044937;28;20545;-80
2023/01/31 02:20:34;;;;;;;12.40;4.80;;;;;;;2.22;100.00;99705.59;5062533;28;20036;-80
2023/01/31 02:22:59;;;;;;;13.30;4.57;;;;;;;2.19;100.00;99708.53;5070526;28;20009;-80
2023/01/31 02:25:50;;;;;;;14.75;5.15;;;;;;;2.12;100.00;99713.56;5062386;28;20054;-80
2023/01/31 02:28:30;;;;;;;11.80;5.15;;;;;;;2.02;100.00;99693.06;5054802;28;20032;-80
2023/01/31 02:31:37;;;;;;;10.48;4.40;;;;;;;2.10;100.00;99714.66;5065445;28;20032;-80
2023/01/31 02:34:19;;;;;;;16.23;5.25;;;;;;;1.79;100.00;99661.13;5062115;28;20100;-80
2023/01/31 02:36:47;;;;;;;15.50;5.03;;;;;;;2.14;100.00;99708.06;5058015;28;20029;-81
2023/01/31 02:39:27;;;;;;;15.98;5.10;;;;;;;1.92;100.00;99669.81;5053427;28;20024;-80
2023/01/31 02:42:12;;;;;;;12.18;4.80;;;;;;;1.87;100.00;99666.69;5063539;28;20064;-81
2023/01/31 02:45:00;;;;;;;14.07;4.95;;;;;;;1.46;100.00;99600.72;5050839;28;20498;-81
2023/01/31 02:47:28;;;;;;;13.20;5.18;;;;;;;2.11;100.00;99711.00;5052515;28;20032;-80
2023/01/31 02:50:24;;;;;;;15.95;5.28;;;;;;;1.78;100.00;99663.91;5049233;28;20049;-81
2023/01/31 02:52:53;;;;;;;16.33;5.55;;;;;;;1.96;100.00;99705.09;5033936;28;20021;-81
2023/01/31 02:58:22;;;;;;;12.32;5.25;;;;;;;1.65;100.00;99670.28;5073179;28;20070;-81
2023/01/31 03:00:48;;;;;;;15.18;4.93;;;;;;;2.01;100.00;99720.72;5054384;28;20028;-81
2023/01/31 03:03:21;;;;;;;11.75;5.22;;;;;;;2.04;100.00;99715.97;5049597;28;20039;-80
2023/01/31 03:06:09;;;;;;;16.23;5.78;;;;;;;2.10;100.00;99717.31;5047086;28;20033;-80
2023/01/31 03:08:38;;;;;;;15.13;5.88;;;;;;;2.15;100.00;99728.47;5050388;28;20033;-80
2023/01/31 03:11:07;;;;;;;12.38;5.55;;;;;;;2.10;100.00;99720.00;5047368;28;20025;-81
2023/01/31 03:13:42;;;;;;;16.13;5.50;;;;;;;2.13;100.00;99725.91;5058198;28;20013;-81
2023/01/31 03:19:33;;;;;;;15.85;5.53;;;;;;;1.89;100.00;99675.41;5067847;28;20163;-81
2023/01/31 03:22:09;;;;;;;14.00;5.72;;;;;;;1.66;100.00;99647.09;5061514;28;20039;-80
2023/01/31 03:24:36;;;;;;;19.13;6.03;;;;;;;2.15;100.00;99728.47;5053807;28;20029;-81
2023/01/31 03:27:03;;;;;;;15.63;5.00;;;;;;;1.79;100.00;99676.28;5042737;28;20045;-78
2023/01/31 03:29:33;;;;;;;14.77;5.40;;;;;;;1.80;100.00;99692.16;5069187;28;20040;-80
2023/01/31 03:32:10;;;;;;;18.15;6.10;;;;;;;1.88;100.00;99694.19;5044896;28;20013;-81
2023/01/31 03:34:36;;;;;;;15.20;5.72;;;;;;;1.66;100.00;99684.44;5070988;28;20033;-80
2023/01/31 03:37:06;;;;;;;17.80;6.30;;;;;;;1.37;100.00;99645.00;5049543;28;20024;-80
2023/01/31 03:39:44;;;;;;;17.52;5.65;;;;;;;1.98;100.00;99743.19;5057058;28;20488;-81
2023/01/31 03:42:20;;;;;;;17.13;5.47;;;;;;;2.04;100.00;99747.16;5050851;28;20502;-80
2023/01/31 03:44:50;;;;;;;15.02;5.57;;;;;;;2.05;100.00;99743.53;5047817;28;20482;-81
2023/01/31 03:47:19;;;;;;;14.30;5.82;;;;;;;1.89;100.00;99715.44;5053347;28;20087;-81
2023/01/31 03:49:47;;;;;;;17.85;5.82;;;;;;;1.91;100.00;99699.28;5062288;28;20037;-81
2023/01/31 03:52:17;;;;;;;14.03;5.83;;;;;;;2.07;100.00;99746.91;5057918;28;20032;-81
2023/01/31 03:54:49;;;;;;;16.90;5.55;;;;;;;1.86;100.00;99717.50;5055251;28;20024;-80
2023/01/31 03:57:22;;;;;;;12.18;5.93;;;;;;;1.59;100.00;99688.56;5051799;28;20040;-80
2023/01/31 03:59:54;;;;;;;11.48;5.53;;;;;;;1.92;100.00;99747.19;5046450;28;20025;-81
2023/01/31 04:02:23;;;;;;;14.82;5.93;;;;;;;1.88;100.00;99751.06;5070624;28;20044;-80
2023/01/31 04:04:58;;;;;;;;;;;;;;;2.01;100.00;99774.09;5046531;28;20025;-81
2023/01/31 04:07:24;;;;;;;16.27;5.85;;;;;;;1.37;100.00;99684.97;5057772;28;19920;-80
2023/01/31 04:09:49;;;;;;;18.23;6.10;;;;;;;1.58;100.00;99709.06;5050106;28;20548;-80
2023/01/31 04:12:16;;;;;;;14.32;6.35;;;;;;;1.71;100.00;99735.59;5061028;28;20009;-80
2023/01/31 04:14:42;;;;;;;14.77;6.28;;;;;;;1.68;100.00;99722.53;5050853;28;20025;-80
2023/01/31 04:17:08;;;;;;;19.08;6.18;;;;;;;1.88;100.00;99761.75;5052224;28;20033;-80
2023/01/31 04:19:33;;;;;;;19.98;6.90;;;;;;;1.85;100.00;99772.69;5049160;28;20261;-81
2023/01/31 04:21:58;;;;;;;14.43;5.70;;;;;;;1.63;100.00;99732.72;5071111;28;20036;-81
2023/01/31 04:24:24;;;;;;;17.10;6.65;;;;;;;1.54;100.00;99736.94;5046631;28;20111;-81
2023/01/31 04:26:49;;;;;;;18.98;6.15;;;;;;;1.79;100.00;99775.84;5060467;28;20033;-81
2023/01/31 04:29:16;;;;;;;19.98;5.70;;;;;;;1.20;100.00;99699.63;5068767;28;20079;-81
2023/01/31 04:31:41;;;;;;;19.33;6.85;;;;;;;1.68;100.00;99781.22;5091343;22;20058;-57
2023/01/31 04:34:07;;;;;;;17.10;6.72;;;;;;;1.71;100.00;99779.13;5054109;28;20029;-59
2023/01/31 04:36:33;;;;;;;20.95;7.10;;;;;;;1.65;100.00;99776.97;5059419;28;20025;-58
2023/01/31 04:38:59;;;;;;;15.38;6.03;;;;;;;1.62;100.00;99784.34;5062409;28;20126;-58
2023/01/31 04:41:25;;;;;;;21.90;6.60;;;;;;;1.59;100.00;99784.59;5066893;28;20517;-59
2023/01/31 04:43:50;;;;;;;12.05;6.45;;;;;;;1.54;100.00;99767.13;5065978;28;20032;-58
2023/01/31 04:46:16;;;;;;;21.75;7.28;;;;;;;1.49;100.00;99768.47;5068291;28;20024;-59
2023/01/31 04:48:41;;;;;;;14.10;6.13;;;;;;;1.42;100.00;99773.44;5069902;28;20467;-58
2023/01/31 04:51:06;;;;;;;20.42;7.32;;;;;;;1.31;100.00;99771.63;5056280;28;20750;-58
2023/01/31 04:53:32;;;;;;;17.38;7.05;;;;;;;1.24;100.00;99769.56;5058657;28;20480;-58
2023/01/31 04:55:57;;;;;;;18.63;7.43;;;;;;;1.08;100.00;99765.44;5068534;28;20017;-58
2023/01/31 04:58:23;;;;;;;22.52;7.50;;;;;;;1.02;100.00;99765.91;5060132;28;20024;-58
2023/01/31 05:00:48;;;;;;;14.32;6.57;;;;;;;0.92;100.00;99769.38;5065011;28;20094;-58
2023/01/31 05:03:14;;;;;;;20.33;7.38;;;;;;;0.78;100.00;99778.44;5061986;28;20040;-58
2023/01/31 05:05:39;;;;;;;23.35;8.52;;;;;;;0.79;100.00;99759.69;5069083;28;20027;-58
2023/01/31 05:08:05;;;;;;;22.65;7.07;;;;;;;0.66;100.00;99769.59;5061344;28;20120;-58
2023/01/31 05:10:31;;;;;;;17.52;6.97;;;;;;;0.58;100.00;99775.47;5062024;28;20550;-58
2023/01/31 05:12:56;;;;;;;17.90;7.63;;;;;;;0.51;100.00;99771.56;5054660;28;20127;-58
2023/01/31 05:15:22;;;;;;;21.30;8.00;;;;;;;0.51;100.00;99776.91;5067222;28;20543;-59
2023/01/31 05:17:53;;;;;;;24.25;8.43;;;;;;;0.44;100.00;99775.66;5072590;28;20039;-58
2023/01/31 05:20:18;;;;;;;20.40;7.22;;;;;;;0.43;100.00;99779.28;5061150;28;20020;-59
2023/01/31 05:22:48;;;;;;;16.65;7.72;;;;;;;0.38;100.00;99773.47;5062536;28;20394;-59
2023/01/31 05:25:13;;;;;;;;;;;;;;;0.37;100.00;99780.59;5063947;28;20017;-58
2023/01/31 05:27:38;;;;;;;23.35;7.63;;;;;;;0.38;100.00;99776.97;5069368;28;19924;-58
2023/01/31 05:30:05;;;;;;;28.77;8.13;;;;;;;0.47;100.00;99779.91;5062433;28;20078;-58
2023/01/31 05:32:30;;;;;;;19.90;7.55;;;;;;;0.57;100.00;99773.78;5069708;28;20356;-58
2023/01/31 05:34:55;;;;;;;24.63;9.15;;;;;;;0.55;100.00;99772.19;5060205;28;20036;-58
2023/01/31 05:37:21;;;;;;;24.33;8.27;;;;;;;0.64;100.00;99777.69;5066335;28;20704;-58
2023/01/31 05:39:46;;;;;;;18.88;7.03;;;;;;;0.69;100.00;99773.81;5061685;28;20101;-58
2023/01/31 05:42:12;;;;;;;24.98;7.57;;;;;;;0.70;100.00;99770.19;5067799;28;20025;-58
2023/01/31 05:44:37;;;;;;;20.42;7.68;;;;;;;0.61;100.00;99774.41;5068035;28;20054;-58
2023/01/31 05:47:02;;;;;;;21.08;7.82;;;;;;;0.52;100.00;99778.59;5071182;28;20594;-58
2023/01/31 05:49:32;;;;;;;20.80;7.35;;;;;;;0.47;100.00;99770.09;5081126;28;20021;-58
2023/01/31 05:51:58;;;;;;;21.02;7.85;;;;;;;0.38;100.00;99771.66;5068973;28;20052;-61
2023/01/31 05:54:24;;;;;;;17.27;7.40;;;;;;;0.27;100.00;99778.75;5063550;28;20028;-58
2023/01/31 05:56:49;;;;;;;24.27;8.32;;;;;;;0.33;100.00;99784.44;5079767;28;20062;-58
2023/01/31 05:59:14;;;;;;;20.13;7.70;;;;;;;0.31;100.00;99770.41;5078832;28;20082;-58
2023/01/31 06:01:40;;;;;;;20.27;7.85;;;;;;;0.38;100.00;99776.13;5066012;28;20063;-58
2023/01/31 06:04:05;;;;;;;17.90;7.80;;;;;;;0.39;100.00;99785.81;5066829;28;20035;-58
2023/01/31 06:06:31;;;;;;;23.08;8.18;;;;;;;0.33;100.00;99772.97;5060773;28;20025;-58
2023/01/31 06:08:56;;;;;;;24.73;8.10;;;;;;;0.27;100.00;99787.56;5060120;28;20044;-58
2023/01/31 06:11:21;;;;;;;25.17;8.23;;;;;;;0.17;100.00;99784.72;5063298;28;20017;-58
2023/01/31 06:13:48;;;;;;;28.05;9.10;;;;;;;0.15;100.00;99801.78;5057130;28;20024;-59
2023/01/31 06:16:13;;;;;;;21.88;8.43;;;;;;;0.05;100.00;99790.09;5063000;28;20051;-59
2023/01/31 06:18:39;;;;;;;23.55;8.68;;;;;;;0.04;100.00;99788.41;5062630;28;20024;-58
2023/01/31 06:21:04;;;;;;;21.20;8.35;;;;;;;0.00;100.00;99787.81;5066928;28;20059;-58
2023/01/31 06:23:30;;;;;;;25.58;9.02;;;;;;;0.01;100.00;99793.97;5067615;28;20475;-59
2023/01/31 06:25:56;;;;;;;23.15;8.55;;;;;;;-0.05;100.00;99805.91;5064327;28;20025;-58
2023/01/31 06:28:22;;;;;;;28.42;10.07;;;;;;;-0.12;100.00;99804.63;5054241;28;20040;-58
2023/01/31 06:30:47;;;;;;;32.47;10.32;;;;;;;-0.13;100.00;99798.47;5083388;28;20028;-59
2023/01/31 06:33:13;;;;;;;32.47;9.95;;;;;;;-0.19;100.00;99809.53;5075332;28;20025;-58
2023/01/31 06:35:39;;;;;;;24.05;10.00;;;;;;;-0.26;100.00;99818.94;5067630;28;20490;-58
2023/01/31 06:38:06;;;;;;;28.55;9.40;;;;;;;-0.28;100.00;99821.69;5063967;28;20028;-59
2023/01/31 06:40:31;;;;;;;30.00;10.20;;;;;;;-0.27;100.00;99826.03;5066804;28;20020;-58
2023/01/31 06:42:58;;;;;;;36.63;10.82;;;;;;;-0.36;100.00;99820.56;5079772;28;20027;-60
2023/01/31 06:45:24;;;;;;;28.58;8.77;;;;;;;-0.32;100.00;99830.00;5079761;28;20015;-59
2023/01/31 06:47:50;;;;;;;20.92;8.75;;;;;;;-0.34;100.00;99824.81;5069996;28;20036;-60
2023/01/31 06:50:15;;;;;;;27.60;9.23;;;;;;;-0.32;100.00;99824.66;5055495;28;20039;-59
2023/01/31 06:52:41;;;;;;;29.35;9.43;;;;;;;-0.36;100.00;99834.69;5085294;28;20016;-59
2023/01/31 06:55:07;;;;;;;29.23;10.10;;;;;;;-0.46;100.00;99829.16;5059605;28;20029;-59
2023/01/31 06:57:33;;;;;;;32.70;9.25;;;;;;;-0.48;100.00;99827.56;5055872;28;20122;-59
2023/01/31 06:59:58;;;;;;;31.27;10.45;;;;;;;-0.48;100.00;99835.53;5059151;28;20029;-59
2023/01/31 07:02:24;;;;;;;27.63;10.23;;;;;;;-0.48;100.00;99823.09;5065686;28;20020;-59
2023/01/31 07:04:50;;;;;;;28.80;10.07;;;;;;;-0.54;100.00;99822.69;5069716;28;20553;-59
2023/01/31 07:07:15;;;;;;;24.98;10.63;;;;;;;-0.52;100.00;99824.28;5054086;28;20032;-59
2023/01/31 07:09:41;;;;;;;24.50;9.77;;;;;;;-0.68;100.00;99821.00;5053045;28;20057;-59
2023/01/31 07:12:06;;;;;;;26.20;9.80;;;;;;;-0.76;100.00;99816.22;5069956;28;20086;-59
2023/01/31 07:14:32;;;;;;;30.35;9.85;;;;;;;-0.66;100.00;99827.03;5070643;28;20032;-59
2023/01/31 07:16:57;;;;;;;26.48;9.57;;;;;;;-0.57;100.00;99826.41;5090000;28;20074;-59
2023/01/31 07:19:22;;;;;;;28.92;9.85;;;;;;;-0.41;100.00;99828.84;5080904;28;20487;-59
2023/01/31 07:21:48;;;;;;;22.25;10.25;;;;;;;-0.15;100.00;99844.75;5057326;28;20450;-59
2023/01/31 07:24:14;;;;;;;26.60;9.07;;;;;;;0.08;100.00;99835.09;5067514;28;20082;-59
2023/01/31 07:26:39;;;;;;;28.52;9.55;;;;;;;0.33;100.00;99831.50;5082887;28;20455;-59
2023/01/31 07:29:05;;;;;;;31.80;9.98;;;;;;;0.56;100.00;99836.00;5092851;28;20054;-59
2023/01/31 07:31:30;;;;;;;24.80;8.20;;;;;;;0.64;100.00;99825.59;5075029;28;20024;-59
2023/01/31 07:33:56;;;;;;;20.65;8.63;;;;;;;0.70;100.00;99820.78;5064372;28;20025;-59
2023/01/31 07:36:25;;;;;;;22.02;8.18;;;;;;;0.71;100.00;99811.81;5057437;28;20490;-59
2023/01/31 07:38:53;;;;;;;27.45;7.75;;;;;;;0.78;100.00;99821.06;5064195;28;20035;-59
2023/01/31 07:41:18;;;;;;;20.45;8.00;;;;;;;0.89;100.00;99821.09;5072757;28;20468;-59
2023/01/31 07:43:44;;;;;;;16.42;7.28;;;;;;;0.99;100.00;99816.75;5074615;28;20039;-59
2023/01/31 07:46:10;;;;;;;21.05;7.47;;;;;;;1.04;100.00;99819.91;5073882;28;20028;-59
2023/01/31 07:48:36;;;;;;;22.48;8.20;;;;;;;1.11;100.00;99828.31;5068052;28;20060;-59
2023/01/31 07:51:02;;;;;;;21.15;7.78;;;;;;;1.21;100.00;99823.97;5052566;28;20025;-59
2023/01/31 07:53:29;;;;;;;20.90;7.88;;;;;;;1.27;100.00;99827.97;5059133;28;20392;-59
2023/01/31 07:56:09;;;;;;;19.70;8.02;;;;;;;1.38;100.00;99825.31;5072457;28;20416;-59
2023/01/31 07:58:35;;;;;;;26.65;7.35;;;;;;;1.50;100.00;99824.34;5058814;28;20024;-59
2023/01/31 08:03:44;;;;;;;28.70;8.38;;;;;;;1.78;100.00;99832.84;5064681;28;20126;-59
2023/01/31 08:06:12;;;;;;;28.10;7.93;;;;;;;2.02;100.00;99829.16;5064005;28;20031;-59
2023/01/31 08:08:39;;;;;;;19.13;7.88;;;;;;;2.23;100.00;99827.47;5071769;28;20067;-59
2023/01/31 08:11:05;;;;;;;19.73;7.07;;;;;;;2.31;100.00;99838.34;5062197;28;20044;-59
2023/01/31 08:13:31;;;;;;;19.95;6.97;;;;;;;2.21;100.00;99826.72;5071970;28;20463;-59
2023/01/31 08:15:57;;;;;;;18.50;6.25;;;;;;;2.39;100.00;99830.56;5075883;28;20082;-59
2023/01/31 08:18:22;;;;;;;15.85;6.55;;;;;;;2.83;100.00;99826.03;5074180;28;20020;-58
2023/01/31 08:20:48;;;;;;;13.43;6.10;;;;;;;2.92;100.00;99828.91;5061527;28;20029;-59
2023/01/31 08:23:14;;;;;;;17.67;6.35;;;;;;;2.77;100.00;99821.19;5060861;28;20032;-59
2023/01/31 08:25:39;;;;;;;14.80;5.85;;;;;;;2.87;100.00;99821.28;5063241;28;20051;-59
2023/01/31 08:28:04;;;;;;;19.73;6.10;;;;;;;3.01;100.00;99818.28;5071279;28;20033;-59
2023/01/31 08:30:30;;;;;;;11.77;5.65;;;;;;;2.85;100.00;99813.38;5069350;28;20036;-59
2023/01/31 08:32:55;;;;;;;14.23;5.43;;;;;;;2.97;100.00;99821.34;5067863;28;20028;-58
2023/01/31 08:35:21;;;;;;;19.05;5.82;;;;;;;2.80;100.00;99815.59;5072117;28;20020;-58
2023/01/31 08:37:47;;;;;;;16.08;5.03;;;;;;;2.85;100.00;99817.88;5072524;28;20454;-59
2023/01/31 08:40:13;;;;;;;28.02;9.20;;;;;;;2.80;100.00;99804.91;5070426;28;20060;-59
2023/01/31 08:42:38;;;;;;;17.60;7.35;;;;;;;2.89;100.00;99810.47;5064460;28;20038;-59
2023/01/31 08:45:06;;;;;;;18.85;6.40;;;;;;;2.94;100.00;99810.91;5062605;28;20455;-59
2023/01/31 08:47:32;;;;;;;15.73;5.40;;;;;;;2.97;100.00;99816.84;5057988;28;20033;-59
2023/01/31 08:49:57;;;;;;;14.68;4.97;;;;;;;3.01;100.00;99807.59;5065286;28;20033;-59
2023/01/31 08:52:22;;;;;;;12.75;4.78;;;;;;;3.09;100.00;99809.59;5068302;28;20077;-59
2023/01/31 08:54:48;;;;;;;17.10;4.72;;;;;;;3.05;100.00;99806.34;5076354;28;20538;-58
2023/01/31 08:57:13;;;;;;;13.88;4.30;;;;;;;2.85;100.00;99812.53;5071501;28;20063;-58
2023/01/31 08:59:38;;;;;;;7.97;4.00;;;;;;;2.97;100.00;99810.66;5051325;28;20052;-59
2023/01/31 09:02:04;;;;;;;11.90;4.60;;;;;;;3.05;100.00;99813.53;5055871;28;20495;-59
2023/01/31 09:04:29;;;;;;;14.40;5.30;;;;;;;3.17;100.00;99790.22;5059818;28;20424;-59
2023/01/31 09:06:54;;;;;;;15.43;5.40;;;;;;;3.95;100.00;99808.31;5064808;28;20432;-59
2023/01/31 09:09:20;;;;;;;13.90;5.22;;;;;;;7.19;100.00;99798.91;5063840;28;20036;-58
2023/01/31 09:11:45;;;;;;;12.02;5.10;;;;;;;10.33;100.00;99798.09;5072811;28;20028;-58
2023/01/31 09:14:11;;;;;;;11.68;4.22;;;;;;;13.80;75.36;99791.59;5054304;28;20052;-56
2023/01/31 09:16:37;;;;;;;13.15;4.50;;;;;;;16.32;60.14;99782.06;5052757;28;20060;-57
2023/01/31 09:19:02;;;;;;;11.60;4.65;;;;;;;17.52;51.86;99783.97;5052495;28;20483;-57
2023/01/31 09:21:28;;;;;;;13.88;5.15;;;;;;;14.56;56.38;99789.88;5070419;28;20023;-57
2023/01/31 09:24:01;;;;;;;10.65;4.65;;;;;;;13.43;61.88;99783.84;5071325;28;20040;-57
2023/01/31 09:26:26;;;;;;;10.30;3.92;;;;;;;9.54;100.00;99794.47;5069730;28;20021;-57
2023/01/31 09:28:52;;;;;;;11.05;3.97;;;;;;;8.49;100.00;99789.78;5059709;28;20055;-57
2023/01/31 09:31:21;;;;;;;17.17;4.40;;;;;;;6.88;100.00;99789.56;5057678;28;20028;-57
2023/01/31 09:33:47;;;;;;;13.10;3.72;;;;;;;8.04;100.00;99776.63;5066632;22;20052;-82
2023/01/31 09:36:15;;;;;;;11.02;3.35;;;;;;;7.91;100.00;99787.84;5080873;28;20032;-79
2023/01/31 09:38:40;;;;;;;12.27;3.67;;;;;;;7.64;100.00;99768.22;5080997;28;20096;-80
2023/01/31 09:41:35;;;;;;;13.35;4.00;;;;;;;7.16;100.00;99798.38;5079724;28;20024;-81
2023/01/31 09:44:16;;;;;;;15.27;3.97;;;;;;;6.46;100.00;99755.25;5045455;28;20048;-82
2023/01/31 09:47:02;;;;;;;13.80;3.40;;;;;;;6.13;100.00;99760.28;5071116;28;20474;-79
2023/01/31 09:49:31;;;;;;;7.75;3.67;;;;;;;5.52;100.00;99747.44;5061250;28;20039;-79
2023/01/31 09:52:02;;;;;;;12.63;3.38;;;;;;;5.79;100.00;99782.38;5075948;28;20379;-81
2023/01/31 09:54:34;;;;;;;14.05;3.58;;;;;;;5.45;100.00;99725.72;5076412;28;20029;-79
2023/01/31 09:57:08;;;;;;;12.15;3.90;;;;;;;6.59;100.00;99798.72;5070737;28;20044;-79
2023/01/31 10:00:24;;;;;;;12.63;3.97;;;;;;;7.35;100.00;99791.94;5062588;28;20070;-79
2023/01/31 10:03:08;;;;;;;7.32;3.33;;;;;;;7.09;100.00;99792.75;4960939;28;20037;-80
2023/01/31 10:09:27;;;;;;;12.48;4.78;;;;;;;7.11;100.00;99780.00;4920417;29;20039;-78
2023/01/31 10:12:06;;;;;;;17.02;4.53;;;;;;;6.50;100.00;99770.94;4908257;29;20043;-82
2023/01/31 10:18:31;;;;;;;10.27;3.70;;;;;;;6.50;100.00;99776.31;5068067;28;20397;-87
2023/01/31 10:21:21;;;;;;;9.85;3.40;;;;;;;6.26;100.00;99754.53;5071082;28;20060;-77
2023/01/31 10:23:58;;;;;;;12.00;3.35;;;;;;;6.57;100.00;99760.38;5042496;28;20028;-75
2023/01/31 10:26:33;;;;;;;9.82;3.13;;;;;;;6.78;100.00;99768.13;5065421;28;20071;-76
2023/01/31 10:29:16;;;;;;;11.57;3.70;;;;;;;6.95;100.00;99788.78;5052784;28;20036;-77
2023/01/31 10:32:05;;;;;;;12.38;3.55;;;;;;;7.36;100.00;99782.84;5055975;28;20654;-73
2023/01/31 10:34:37;;;;;;;11.95;3.88;;;;;;;6.90;100.00;99784.88;5075936;28;20031;-73
2023/01/31 10:37:13;;;;;;;9.93;3.30;;;;;;;6.48;100.00;99770.22;5083193;28;20024;-72
2023/01/31 10:40:05;;;;;;;13.75;4.00;;;;;;;6.34;100.00;99790.41;5065981;28;20016;-73
2023/01/31 10:42:36;;;;;;;12.13;3.80;;;;;;;6.31;100.00;99782.66;5053538;28;20040;-78
2023/01/31 10:45:22;;;;;;;8.63;3.05;;;;;;;5.95;100.00;99781.75;5074492;28;20466;-84
2023/01/31 10:47:58;;;;;;;11.02;4.63;;;;;;;6.43;100.00;99780.59;5066318;28;20028;-76
2023/01/31 10:50:31;;;;;;;12.18;3.72;;;;;;;6.48;100.00;99778.28;5064596;28;20056;-79
2023/01/31 10:53:25;;;;;;;9.10;3.10;;;;;;;6.90;100.00;99790.28;5060778;28;20028;-82
2023/01/31 10:55:58;;;;;;;10.82;3.47;;;;;;;6.47;100.00;99778.44;5059834;28;20021;-79
2023/01/31 10:58:24;;;;;;;7.15;3.33;;;;;;;6.11;100.00;99754.22;5063231;28;20450;-80
2023/01/31 11:00:50;;;;;;;11.70;3.85;;;;;;;5.32;100.00;99760.94;5058240;28;20466;-74
2023/01/31 11:10:26;;;;;;;12.10;3.28;;;;;;;4.68;100.00;99741.00;5111293;28;20038;-81
2023/01/31 11:16:13;;;;;;;11.70;3.10;;;;;;;5.19;100.00;99737.09;5068211;28;20120;-80
2023/01/31 11:18:48;;;;;;;12.63;3.00;;;;;;;4.97;100.00;99719.50;5076707;28;20050;-85
2023/01/31 11:31:46;;;;;;;9.07;2.72;;;;;;;4.99;100.00;99705.97;5097112;27;20040;-84
2023/01/31 11:38:21;;;;;;;6.07;2.15;;;;;;;5.31;100.00;99707.41;5100387;28;20541;-79
2023/01/31 11:40:46;;;;;;;9.38;2.42;;;;;;;5.28;100.00;99695.13;5078891;28;20025;-80
2023/01/31 11:43:54;;;;;;;4.47;2.15;;;;;;;5.33;100.00;99714.31;5083589;28;20114;-84
2023/01/31 11:47:17;;;;;;;6.90;2.13;;;;;;;5.23;100.00;99692.88;5075478;28;20044;-82
2023/01/31 11:50:09;;;;;;;8.23;2.90;;;;;;;5.43;100.00;99699.03;5052760;28;20071;-83
2023/01/31 11:53:30;;;;;;;8.80;3.08;;;;;;;5.25;100.00;99698.94;5055974;28;20024;-87
2023/01/31 11:59:14;;;;;;;8.70;2.13;;;;;;;4.88;100.00;99677.50;5074542;28;20040;-62
2023/01/31 12:01:55;;;;;;;13.48;2.28;;;;;;;5.10;100.00;99678.97;5051851;28;20074;-62
2023/01/31 12:04:25;;;;;;;7.53;1.90;;;;;;;5.33;100.00;99670.53;5064054;28;20520;-62
2023/01/31 12:07:01;;;;;;;7.78;2.38;;;;;;;5.41;100.00;99655.38;5044555;28;20108;-63
2023/01/31 12:09:29;;;;;;;13.73;2.15;;;;;;;5.52;100.00;99646.28;5042478;28;20484;-63
2023/01/31 12:11:58;;;;;;;3.38;1.48;;;;;;;5.32;100.00;99642.88;5056947;28;20032;-62
2023/01/31 12:14:36;;;;;;;8.98;2.03;;;;;;;5.42;100.00;99643.69;5039783;28;20603;-62
2023/01/31 12:17:02;;;;;;;8.25;2.22;;;;;;;5.46;100.00;99634.31;5047387;28;20033;-62
2023/01/31 12:20:10;;;;;;;7.53;1.92;;;;;;;5.52;100.00;99648.13;5044466;28;20023;-56
2023/01/31 12:22:52;;;;;;;6.35;1.73;;;;;;;5.31;100.00;99661.78;5004821;28;20147;-62
2023/01/31 12:25:52;;;;;;;7.50;2.20;;;;;;;5.33;100.00;99643.72;5046489;28;20033;-62